sensor_id;sensor_type;location;lat;lon;timestamp;P1;durP1;ratioP1;P2;durP2;ratioP2
76059;SDS011;64759;52.220;5.170;2023-04-10T00:01:37;12.63;;;9.68;;
76059;SDS011;64759;52.220;5.170;2023-04-10T00:04:02;12.85;;;9.32;;
76059;SDS011;64759;52.220;5.170;2023-04-10T00:06:29;11.05;;;9.00;;
76059;SDS011;64759;52.220;5.170;2023-04-10T00:08:55;11.85;;;9.38;;
76059;SDS011;64759;52.220;5.170;2023-04-10T00:11:21;12.57;;;9.57;;
76059;SDS011;64759;52.220;5.170;2023-04-10T00:13:49;14.25;;;8.75;;
76059;SDS011;64759;52.220;5.170;2023-04-10T00:16:14;15.80;;;8.88;;
76059;SDS011;64759;52.220;5.170;2023-04-10T00:18:40;13.23;;;10.35;;
76059;SDS011;64759;52.220;5.170;2023-04-10T00:21:05;14.30;;;9.80;;
76059;SDS011;64759;52.220;5.170;2023-04-10T00:23:31;14.20;;;9.85;;
76059;SDS011;64759;52.220;5.170;2023-04-10T00:25:58;12.38;;;9.63;;
76059;SDS011;64759;52.220;5.170;2023-04-10T00:28:24;11.98;;;9.05;;
76059;SDS011;64759;52.220;5.170;2023-04-10T00:30:50;14.32;;;9.25;;
76059;SDS011;64759;52.220;5.170;2023-04-10T00:33:15;12.70;;;9.43;;
76059;SDS011;64759;52.220;5.170;2023-04-10T00:35:42;13.45;;;9.48;;
76059;SDS011;64759;52.220;5.170;2023-04-10T00:38:07;14.45;;;9.95;;
76059;SDS011;64759;52.220;5.170;2023-04-10T00:40:32;14.88;;;9.95;;
76059;SDS011;64759;52.220;5.170;2023-04-10T00:42:58;15.00;;;9.15;;
76059;SDS011;64759;52.220;5.170;2023-04-10T00:45:23;12.35;;;9.48;;
76059;SDS011;64759;52.220;5.170;2023-04-10T00:47:49;11.80;;;9.32;;
76059;SDS011;64759;52.220;5.170;2023-04-10T00:50:15;13.30;;;9.82;;
76059;SDS011;64759;52.220;5.170;2023-04-10T00:52:41;13.02;;;9.23;;
76059;SDS011;64759;52.220;5.170;2023-04-10T00:55:07;13.75;;;9.85;;
76059;SDS011;64759;52.220;5.170;2023-04-10T00:57:33;12.32;;;9.65;;
76059;SDS011;64759;52.220;5.170;2023-04-10T00:59:59;11.52;;;9.63;;
76059;SDS011;64759;52.220;5.170;2023-04-10T01:02:25;12.82;;;10.15;;
76059;SDS011;64759;52.220;5.170;2023-04-10T01:04:51;13.00;;;9.95;;
76059;SDS011;64759;52.220;5.170;2023-04-10T01:10:25;12.88;;;9.68;;
76059;SDS011;64759;52.220;5.170;2023-04-10T01:13:05;12.50;;;9.82;;
76059;SDS011;64759;52.220;5.170;2023-04-10T01:15:46;17.88;;;10.85;;
76059;SDS011;64759;52.220;5.170;2023-04-10T01:18:25;13.60;;;9.73;;
76059;SDS011;64759;52.220;5.170;2023-04-10T01:21:06;11.98;;;9.50;;
76059;SDS011;64759;52.220;5.170;2023-04-10T01:29:07;12.87;;;9.57;;
76059;SDS011;64759;52.220;5.170;2023-04-10T01:31:43;13.13;;;9.63;;
76059;SDS011;64759;52.220;5.170;2023-04-10T01:34:17;13.88;;;9.93;;
76059;SDS011;64759;52.220;5.170;2023-04-10T01:36:49;14.43;;;9.75;;
76059;SDS011;64759;52.220;5.170;2023-04-10T01:39:19;14.60;;;10.40;;
76059;SDS011;64759;52.220;5.170;2023-04-10T01:41:46;12.30;;;9.95;;
76059;SDS011;64759;52.220;5.170;2023-04-10T01:44:16;15.05;;;9.98;;
76059;SDS011;64759;52.220;5.170;2023-04-10T01:46:47;11.90;;;9.65;;
76059;SDS011;64759;52.220;5.170;2023-04-10T01:49:13;12.85;;;9.90;;
76059;SDS011;64759;52.220;5.170;2023-04-10T01:51:41;12.98;;;9.40;;
76059;SDS011;64759;52.220;5.170;2023-04-10T01:54:09;10.70;;;8.50;;
76059;SDS011;64759;52.220;5.170;2023-04-10T01:56:35;12.38;;;9.68;;
76059;SDS011;64759;52.220;5.170;2023-04-10T01:59:02;13.13;;;9.57;;
76059;SDS011;64759;52.220;5.170;2023-04-10T02:01:28;11.30;;;8.95;;
76059;SDS011;64759;52.220;5.170;2023-04-10T02:03:53;12.25;;;9.43;;
76059;SDS011;64759;52.220;5.170;2023-04-10T02:06:21;12.95;;;9.30;;
76059;SDS011;64759;52.220;5.170;2023-04-10T02:08:58;16.38;;;8.85;;
76059;SDS011;64759;52.220;5.170;2023-04-10T02:14:22;12.55;;;8.05;;
76059;SDS011;64759;52.220;5.170;2023-04-10T02:16:52;10.30;;;9.15;;
76059;SDS011;64759;52.220;5.170;2023-04-10T02:19:20;12.32;;;8.85;;
76059;SDS011;64759;52.220;5.170;2023-04-10T02:21:49;11.75;;;9.20;;
76059;SDS011;64759;52.220;5.170;2023-04-10T02:24:15;13.65;;;8.80;;
76059;SDS011;64759;52.220;5.170;2023-04-10T02:26:44;14.07;;;8.65;;
76059;SDS011;64759;52.220;5.170;2023-04-10T02:29:10;11.57;;;8.75;;
76059;SDS011;64759;52.220;5.170;2023-04-10T02:31:36;12.60;;;8.98;;
76059;SDS011;64759;52.220;5.170;2023-04-10T02:34:01;12.57;;;9.25;;
76059;SDS011;64759;52.220;5.170;2023-04-10T02:36:27;11.65;;;8.88;;
76059;SDS011;64759;52.220;5.170;2023-04-10T02:38:54;9.27;;;8.10;;
76059;SDS011;64759;52.220;5.170;2023-04-10T02:41:22;10.82;;;9.05;;
76059;SDS011;64759;52.220;5.170;2023-04-10T02:43:49;12.77;;;9.10;;
76059;SDS011;64759;52.220;5.170;2023-04-10T02:46:17;10.93;;;8.38;;
76059;SDS011;64759;52.220;5.170;2023-04-10T02:48:42;11.90;;;9.00;;
76059;SDS011;64759;52.220;5.170;2023-04-10T02:51:07;11.73;;;9.27;;
76059;SDS011;64759;52.220;5.170;2023-04-10T02:53:33;12.82;;;8.50;;
76059;SDS011;64759;52.220;5.170;2023-04-10T02:56:00;12.82;;;8.68;;
76059;SDS011;64759;52.220;5.170;2023-04-10T02:58:26;12.02;;;8.90;;
76059;SDS011;64759;52.220;5.170;2023-04-10T03:00:55;11.43;;;8.70;;
76059;SDS011;64759;52.220;5.170;2023-04-10T03:03:32;15.82;;;8.45;;
76059;SDS011;64759;52.220;5.170;2023-04-10T03:05:58;11.30;;;8.43;;
76059;SDS011;64759;52.220;5.170;2023-04-10T03:08:28;11.02;;;8.05;;
76059;SDS011;64759;52.220;5.170;2023-04-10T03:10:54;13.50;;;8.85;;
76059;SDS011;64759;52.220;5.170;2023-04-10T03:13:20;10.98;;;8.40;;
76059;SDS011;64759;52.220;5.170;2023-04-10T03:15:47;11.27;;;8.70;;
76059;SDS011;64759;52.220;5.170;2023-04-10T03:18:12;11.00;;;8.48;;
76059;SDS011;64759;52.220;5.170;2023-04-10T03:20:40;11.10;;;8.13;;
76059;SDS011;64759;52.220;5.170;2023-04-10T03:23:05;11.88;;;8.35;;
76059;SDS011;64759;52.220;5.170;2023-04-10T03:25:34;11.50;;;8.55;;
76059;SDS011;64759;52.220;5.170;2023-04-10T03:28:02;12.35;;;8.32;;
76059;SDS011;64759;52.220;5.170;2023-04-10T03:30:28;10.25;;;7.85;;
76059;SDS011;64759;52.220;5.170;2023-04-10T03:32:54;15.30;;;8.43;;
76059;SDS011;64759;52.220;5.170;2023-04-10T03:35:19;11.13;;;7.80;;
76059;SDS011;64759;52.220;5.170;2023-04-10T03:37:45;9.52;;;7.65;;
76059;SDS011;64759;52.220;5.170;2023-04-10T03:40:10;11.45;;;8.13;;
76059;SDS011;64759;52.220;5.170;2023-04-10T03:42:36;10.32;;;8.20;;
76059;SDS011;64759;52.220;5.170;2023-04-10T03:45:03;10.27;;;8.13;;
76059;SDS011;64759;52.220;5.170;2023-04-10T03:47:30;13.88;;;8.32;;
76059;SDS011;64759;52.220;5.170;2023-04-10T03:49:58;10.23;;;8.05;;
76059;SDS011;64759;52.220;5.170;2023-04-10T03:52:24;10.98;;;8.85;;
76059;SDS011;64759;52.220;5.170;2023-04-10T03:54:53;9.00;;;7.75;;
76059;SDS011;64759;52.220;5.170;2023-04-10T03:57:24;10.77;;;8.30;;
76059;SDS011;64759;52.220;5.170;2023-04-10T03:59:53;9.57;;;7.90;;
76059;SDS011;64759;52.220;5.170;2023-04-10T04:02:19;9.57;;;6.90;;
76059;SDS011;64759;52.220;5.170;2023-04-10T04:04:44;13.63;;;8.05;;
76059;SDS011;64759;52.220;5.170;2023-04-10T04:07:33;10.48;;;8.00;;
76059;SDS011;64759;52.220;5.170;2023-04-10T04:10:08;9.13;;;7.75;;
76059;SDS011;64759;52.220;5.170;2023-04-10T04:13:06;11.68;;;8.23;;
76059;SDS011;64759;52.220;5.170;2023-04-10T04:15:49;8.00;;;7.20;;
76059;SDS011;64759;52.220;5.170;2023-04-10T04:18:19;9.48;;;7.57;;
76059;SDS011;64759;52.220;5.170;2023-04-10T04:20:48;8.93;;;7.68;;
76059;SDS011;64759;52.220;5.170;2023-04-10T04:23:34;9.38;;;7.63;;
76059;SDS011;64759;52.220;5.170;2023-04-10T04:26:19;11.10;;;8.15;;
76059;SDS011;64759;52.220;5.170;2023-04-10T04:29:11;9.90;;;7.32;;
76059;SDS011;64759;52.220;5.170;2023-04-10T04:31:45;10.30;;;8.02;;
76059;SDS011;64759;52.220;5.170;2023-04-10T04:34:40;8.43;;;7.28;;
76059;SDS011;64759;52.220;5.170;2023-04-10T04:37:21;10.88;;;8.20;;
76059;SDS011;64759;52.220;5.170;2023-04-10T04:40:00;12.38;;;8.05;;
76059;SDS011;64759;52.220;5.170;2023-04-10T04:42:34;8.98;;;7.15;;
76059;SDS011;64759;52.220;5.170;2023-04-10T04:45:12;10.13;;;7.82;;
76059;SDS011;64759;52.220;5.170;2023-04-10T04:47:55;10.80;;;7.93;;
76059;SDS011;64759;52.220;5.170;2023-04-10T04:50:39;9.73;;;7.78;;
76059;SDS011;64759;52.220;5.170;2023-04-10T04:53:16;11.55;;;7.88;;
76059;SDS011;64759;52.220;5.170;2023-04-10T04:56:06;10.53;;;8.43;;
76059;SDS011;64759;52.220;5.170;2023-04-10T04:59:03;9.75;;;8.18;;
76059;SDS011;64759;52.220;5.170;2023-04-10T05:01:56;11.02;;;8.18;;
76059;SDS011;64759;52.220;5.170;2023-04-10T05:04:40;11.85;;;9.23;;
76059;SDS011;64759;52.220;5.170;2023-04-10T05:07:28;10.75;;;8.63;;
76059;SDS011;64759;52.220;5.170;2023-04-10T05:10:09;10.18;;;8.23;;
76059;SDS011;64759;52.220;5.170;2023-04-10T05:13:05;11.77;;;8.80;;
76059;SDS011;64759;52.220;5.170;2023-04-10T05:15:39;10.70;;;8.73;;
76059;SDS011;64759;52.220;5.170;2023-04-10T05:18:23;10.02;;;8.50;;
76059;SDS011;64759;52.220;5.170;2023-04-10T05:21:07;11.88;;;9.20;;
76059;SDS011;64759;52.220;5.170;2023-04-10T05:23:42;11.40;;;8.95;;
76059;SDS011;64759;52.220;5.170;2023-04-10T05:26:27;11.48;;;8.70;;
76059;SDS011;64759;52.220;5.170;2023-04-10T05:29:08;11.88;;;9.32;;
76059;SDS011;64759;52.220;5.170;2023-04-10T05:31:54;10.18;;;8.70;;
76059;SDS011;64759;52.220;5.170;2023-04-10T05:34:39;12.80;;;9.23;;
76059;SDS011;64759;52.220;5.170;2023-04-10T05:37:20;11.63;;;9.43;;
76059;SDS011;64759;52.220;5.170;2023-04-10T05:39:57;11.00;;;8.90;;
76059;SDS011;64759;52.220;5.170;2023-04-10T05:42:34;16.63;;;9.75;;
76059;SDS011;64759;52.220;5.170;2023-04-10T05:45:14;13.70;;;8.70;;
76059;SDS011;64759;52.220;5.170;2023-04-10T05:47:58;10.60;;;8.95;;
76059;SDS011;64759;52.220;5.170;2023-04-10T05:50:34;11.25;;;8.20;;
76059;SDS011;64759;52.220;5.170;2023-04-10T05:53:13;12.52;;;9.02;;
76059;SDS011;64759;52.220;5.170;2023-04-10T05:55:57;11.50;;;8.98;;
76059;SDS011;64759;52.220;5.170;2023-04-10T05:58:56;12.90;;;9.07;;
76059;SDS011;64759;52.220;5.170;2023-04-10T06:01:45;11.15;;;9.90;;
76059;SDS011;64759;52.220;5.170;2023-04-10T06:04:11;13.30;;;9.10;;
76059;SDS011;64759;52.220;5.170;2023-04-10T06:06:38;11.25;;;8.95;;
76059;SDS011;64759;52.220;5.170;2023-04-10T06:09:03;14.20;;;8.82;;
76059;SDS011;64759;52.220;5.170;2023-04-10T06:11:29;10.55;;;8.23;;
76059;SDS011;64759;52.220;5.170;2023-04-10T06:13:56;10.10;;;8.48;;
76059;SDS011;64759;52.220;5.170;2023-04-10T06:16:28;12.75;;;9.43;;
76059;SDS011;64759;52.220;5.170;2023-04-10T06:18:53;12.07;;;9.18;;
76059;SDS011;64759;52.220;5.170;2023-04-10T06:21:23;15.68;;;8.85;;
76059;SDS011;64759;52.220;5.170;2023-04-10T06:23:48;10.88;;;8.57;;
76059;SDS011;64759;52.220;5.170;2023-04-10T06:26:13;9.98;;;8.15;;
76059;SDS011;64759;52.220;5.170;2023-04-10T06:28:39;10.60;;;8.55;;
76059;SDS011;64759;52.220;5.170;2023-04-10T06:31:05;11.45;;;9.00;;
76059;SDS011;64759;52.220;5.170;2023-04-10T06:33:34;9.52;;;8.23;;
76059;SDS011;64759;52.220;5.170;2023-04-10T06:36:01;10.45;;;8.32;;
76059;SDS011;64759;52.220;5.170;2023-04-10T06:38:31;11.05;;;8.57;;
76059;SDS011;64759;52.220;5.170;2023-04-10T06:40:58;9.82;;;8.15;;
76059;SDS011;64759;52.220;5.170;2023-04-10T06:43:24;11.93;;;7.82;;
76059;SDS011;64759;52.220;5.170;2023-04-10T06:45:49;9.07;;;7.78;;
76059;SDS011;64759;52.220;5.170;2023-04-10T06:48:15;9.25;;;7.78;;
76059;SDS011;64759;52.220;5.170;2023-04-10T06:50:40;9.73;;;7.60;;
76059;SDS011;64759;52.220;5.170;2023-04-10T06:53:05;8.00;;;7.10;;
76059;SDS011;64759;52.220;5.170;2023-04-10T06:55:31;9.98;;;8.35;;
76059;SDS011;64759;52.220;5.170;2023-04-10T06:57:56;8.77;;;7.47;;
76059;SDS011;64759;52.220;5.170;2023-04-10T07:00:22;13.50;;;8.07;;
76059;SDS011;64759;52.220;5.170;2023-04-10T07:02:48;10.65;;;7.85;;
76059;SDS011;64759;52.220;5.170;2023-04-10T07:05:13;9.38;;;7.60;;
76059;SDS011;64759;52.220;5.170;2023-04-10T07:07:40;8.63;;;7.72;;
76059;SDS011;64759;52.220;5.170;2023-04-10T07:10:07;8.20;;;7.40;;
76059;SDS011;64759;52.220;5.170;2023-04-10T07:12:33;10.02;;;7.40;;
76059;SDS011;64759;52.220;5.170;2023-04-10T07:14:58;9.30;;;7.40;;
76059;SDS011;64759;52.220;5.170;2023-04-10T07:17:23;13.13;;;7.93;;
76059;SDS011;64759;52.220;5.170;2023-04-10T07:19:49;11.07;;;8.05;;
76059;SDS011;64759;52.220;5.170;2023-04-10T07:22:14;10.77;;;8.10;;
76059;SDS011;64759;52.220;5.170;2023-04-10T07:24:40;9.38;;;7.95;;
76059;SDS011;64759;52.220;5.170;2023-04-10T07:27:05;9.90;;;7.75;;
76059;SDS011;64759;52.220;5.170;2023-04-10T07:29:31;9.10;;;7.10;;
76059;SDS011;64759;52.220;5.170;2023-04-10T07:31:56;10.55;;;7.40;;
76059;SDS011;64759;52.220;5.170;2023-04-10T07:34:22;14.30;;;7.53;;
76059;SDS011;64759;52.220;5.170;2023-04-10T07:36:48;8.80;;;7.50;;
76059;SDS011;64759;52.220;5.170;2023-04-10T07:39:13;11.57;;;7.57;;
76059;SDS011;64759;52.220;5.170;2023-04-10T07:41:39;7.72;;;6.90;;
76059;SDS011;64759;52.220;5.170;2023-04-10T07:44:05;13.52;;;7.05;;
76059;SDS011;64759;52.220;5.170;2023-04-10T07:46:31;11.02;;;7.50;;
76059;SDS011;64759;52.220;5.170;2023-04-10T07:48:57;13.35;;;7.22;;
76059;SDS011;64759;52.220;5.170;2023-04-10T07:51:22;8.45;;;7.25;;
76059;SDS011;64759;52.220;5.170;2023-04-10T07:53:48;7.30;;;6.57;;
76059;SDS011;64759;52.220;5.170;2023-04-10T07:56:14;8.82;;;7.00;;
76059;SDS011;64759;52.220;5.170;2023-04-10T07:58:41;13.77;;;7.53;;
76059;SDS011;64759;52.220;5.170;2023-04-10T08:01:07;8.55;;;7.40;;
76059;SDS011;64759;52.220;5.170;2023-04-10T08:03:39;12.23;;;7.10;;
76059;SDS011;64759;52.220;5.170;2023-04-10T08:06:09;9.75;;;6.93;;
76059;SDS011;64759;52.220;5.170;2023-04-10T08:08:36;7.55;;;6.55;;
76059;SDS011;64759;52.220;5.170;2023-04-10T08:11:06;7.80;;;7.00;;
76059;SDS011;64759;52.220;5.170;2023-04-10T08:13:45;14.05;;;7.47;;
76059;SDS011;64759;52.220;5.170;2023-04-10T08:16:11;8.35;;;6.90;;
76059;SDS011;64759;52.220;5.170;2023-04-10T08:18:36;7.68;;;6.57;;
76059;SDS011;64759;52.220;5.170;2023-04-10T08:21:01;12.82;;;7.05;;
76059;SDS011;64759;52.220;5.170;2023-04-10T08:23:27;10.23;;;7.03;;
76059;SDS011;64759;52.220;5.170;2023-04-10T08:25:52;7.95;;;7.13;;
76059;SDS011;64759;52.220;5.170;2023-04-10T08:28:17;10.35;;;8.32;;
76059;SDS011;64759;52.220;5.170;2023-04-10T08:30:45;10.75;;;7.35;;
76059;SDS011;64759;52.220;5.170;2023-04-10T08:33:10;8.23;;;7.43;;
76059;SDS011;64759;52.220;5.170;2023-04-10T08:35:35;8.40;;;7.05;;
76059;SDS011;64759;52.220;5.170;2023-04-10T08:38:01;8.93;;;7.40;;
76059;SDS011;64759;52.220;5.170;2023-04-10T08:40:26;8.30;;;7.25;;
76059;SDS011;64759;52.220;5.170;2023-04-10T08:42:52;12.40;;;7.93;;
76059;SDS011;64759;52.220;5.170;2023-04-10T08:45:17;9.45;;;7.18;;
76059;SDS011;64759;52.220;5.170;2023-04-10T08:47:44;10.32;;;7.68;;
76059;SDS011;64759;52.220;5.170;2023-04-10T08:50:12;8.35;;;7.53;;
76059;SDS011;64759;52.220;5.170;2023-04-10T08:52:42;10.75;;;8.27;;
76059;SDS011;64759;52.220;5.170;2023-04-10T08:55:09;8.20;;;7.33;;
76059;SDS011;64759;52.220;5.170;2023-04-10T08:57:37;10.45;;;7.30;;
76059;SDS011;64759;52.220;5.170;2023-04-10T09:00:02;9.25;;;7.95;;
76059;SDS011;64759;52.220;5.170;2023-04-10T09:02:30;8.52;;;7.35;;
76059;SDS011;64759;52.220;5.170;2023-04-10T09:04:56;10.35;;;7.57;;
76059;SDS011;64759;52.220;5.170;2023-04-10T09:07:25;10.38;;;7.70;;
76059;SDS011;64759;52.220;5.170;2023-04-10T09:09:51;10.57;;;7.90;;
76059;SDS011;64759;52.220;5.170;2023-04-10T09:12:16;12.23;;;8.43;;
76059;SDS011;64759;52.220;5.170;2023-04-10T09:14:42;9.07;;;8.10;;
76059;SDS011;64759;52.220;5.170;2023-04-10T09:17:21;8.73;;;7.53;;
76059;SDS011;64759;52.220;5.170;2023-04-10T09:19:48;17.38;;;8.32;;
76059;SDS011;64759;52.220;5.170;2023-04-10T09:22:16;8.55;;;7.65;;
76059;SDS011;64759;52.220;5.170;2023-04-10T09:24:43;9.43;;;8.00;;
76059;SDS011;64759;52.220;5.170;2023-04-10T09:27:10;10.48;;;7.95;;
76059;SDS011;64759;52.220;5.170;2023-04-10T09:29:52;9.68;;;8.20;;
76059;SDS011;64759;52.220;5.170;2023-04-10T09:35:03;9.52;;;7.75;;
76059;SDS011;64759;52.220;5.170;2023-04-10T09:37:33;10.18;;;7.50;;
76059;SDS011;64759;52.220;5.170;2023-04-10T09:40:00;9.88;;;8.60;;
76059;SDS011;64759;52.220;5.170;2023-04-10T09:42:32;9.85;;;8.32;;
76059;SDS011;64759;52.220;5.170;2023-04-10T09:44:59;9.88;;;7.97;;
76059;SDS011;64759;52.220;5.170;2023-04-10T09:47:26;9.65;;;7.95;;
76059;SDS011;64759;52.220;5.170;2023-04-10T09:49:56;10.00;;;7.60;;
76059;SDS011;64759;52.220;5.170;2023-04-10T09:52:28;8.40;;;7.45;;
76059;SDS011;64759;52.220;5.170;2023-04-10T09:54:56;12.15;;;7.60;;
76059;SDS011;64759;52.220;5.170;2023-04-10T09:57:24;14.05;;;8.43;;
76059;SDS011;64759;52.220;5.170;2023-04-10T09:59:54;8.93;;;7.55;;
76059;SDS011;64759;52.220;5.170;2023-04-10T10:02:22;10.82;;;7.68;;
76059;SDS011;64759;52.220;5.170;2023-04-10T10:04:50;11.02;;;7.93;;
76059;SDS011;64759;52.220;5.170;2023-04-10T10:07:17;10.02;;;7.35;;
76059;SDS011;64759;52.220;5.170;2023-04-10T10:09:45;8.88;;;7.25;;
76059;SDS011;64759;52.220;5.170;2023-04-10T10:12:11;9.60;;;8.48;;
76059;SDS011;64759;52.220;5.170;2023-04-10T10:15:05;13.70;;;7.18;;
76059;SDS011;64759;52.220;5.170;2023-04-10T10:17:41;8.50;;;7.05;;
76059;SDS011;64759;52.220;5.170;2023-04-10T10:20:10;12.15;;;8.70;;
76059;SDS011;64759;52.220;5.170;2023-04-10T10:22:39;8.60;;;7.70;;
76059;SDS011;64759;52.220;5.170;2023-04-10T10:25:07;8.07;;;7.25;;
76059;SDS011;64759;52.220;5.170;2023-04-10T10:27:35;11.50;;;7.65;;
76059;SDS011;64759;52.220;5.170;2023-04-10T10:30:06;8.85;;;7.00;;
76059;SDS011;64759;52.220;5.170;2023-04-10T10:32:34;8.38;;;7.25;;
76059;SDS011;64759;52.220;5.170;2023-04-10T10:35:01;7.95;;;7.10;;
76059;SDS011;64759;52.220;5.170;2023-04-10T10:37:30;9.63;;;7.10;;
76059;SDS011;64759;52.220;5.170;2023-04-10T10:42:29;13.82;;;7.13;;
76059;SDS011;64759;52.220;5.170;2023-04-10T10:45:16;9.77;;;7.07;;
76059;SDS011;64759;52.220;5.170;2023-04-10T10:47:47;8.65;;;6.85;;
76059;SDS011;64759;52.220;5.170;2023-04-10T10:50:15;9.98;;;6.70;;
76059;SDS011;64759;52.220;5.170;2023-04-10T11:00:13;9.45;;;7.00;;
76059;SDS011;64759;52.220;5.170;2023-04-10T11:02:39;8.77;;;7.60;;
76059;SDS011;64759;52.220;5.170;2023-04-10T11:05:05;8.90;;;7.50;;
76059;SDS011;64759;52.220;5.170;2023-04-10T11:10:57;7.88;;;7.07;;
76059;SDS011;64759;52.220;5.170;2023-04-10T11:13:23;13.60;;;7.53;;
76059;SDS011;64759;52.220;5.170;2023-04-10T11:15:50;8.70;;;7.55;;
76059;SDS011;64759;52.220;5.170;2023-04-10T11:18:17;13.60;;;7.45;;
76059;SDS011;64759;52.220;5.170;2023-04-10T11:23:32;7.22;;;6.45;;
76059;SDS011;64759;52.220;5.170;2023-04-10T11:25:59;8.55;;;6.60;;
76059;SDS011;64759;52.220;5.170;2023-04-10T11:36:18;7.85;;;5.88;;
76059;SDS011;64759;52.220;5.170;2023-04-10T11:41:29;9.07;;;6.75;;
76059;SDS011;64759;52.220;5.170;2023-04-10T11:43:57;6.82;;;6.15;;
76059;SDS011;64759;52.220;5.170;2023-04-10T11:46:24;6.55;;;5.95;;
76059;SDS011;64759;52.220;5.170;2023-04-10T11:49:01;7.72;;;5.82;;
76059;SDS011;64759;52.220;5.170;2023-04-10T11:51:30;6.82;;;6.05;;
76059;SDS011;64759;52.220;5.170;2023-04-10T11:54:09;7.13;;;6.43;;
76059;SDS011;64759;52.220;5.170;2023-04-10T11:56:36;7.40;;;6.15;;
76059;SDS011;64759;52.220;5.170;2023-04-10T11:59:04;8.30;;;6.57;;
76059;SDS011;64759;52.220;5.170;2023-04-10T12:01:38;7.43;;;6.03;;
76059;SDS011;64759;52.220;5.170;2023-04-10T12:04:15;6.28;;;5.57;;
76059;SDS011;64759;52.220;5.170;2023-04-10T12:06:45;5.90;;;5.30;;
76059;SDS011;64759;52.220;5.170;2023-04-10T12:09:13;8.25;;;5.18;;
76059;SDS011;64759;52.220;5.170;2023-04-10T12:11:50;6.63;;;5.07;;
76059;SDS011;64759;52.220;5.170;2023-04-10T12:14:17;10.55;;;8.15;;
76059;SDS011;64759;52.220;5.170;2023-04-10T12:16:46;15.25;;;9.82;;
76059;SDS011;64759;52.220;5.170;2023-04-10T12:19:13;24.90;;;6.07;;
76059;SDS011;64759;52.220;5.170;2023-04-10T12:24:09;5.43;;;4.90;;
76059;SDS011;64759;52.220;5.170;2023-04-10T12:26:35;6.57;;;4.72;;
76059;SDS011;64759;52.220;5.170;2023-04-10T12:29:01;6.38;;;4.60;;
76059;SDS011;64759;52.220;5.170;2023-04-10T12:31:33;4.75;;;4.35;;
76059;SDS011;64759;52.220;5.170;2023-04-10T12:34:01;17.50;;;4.93;;
76059;SDS011;64759;52.220;5.170;2023-04-10T12:36:28;9.38;;;4.63;;
76059;SDS011;64759;52.220;5.170;2023-04-10T12:38:56;6.40;;;5.13;;
76059;SDS011;64759;52.220;5.170;2023-04-10T12:41:24;5.50;;;4.43;;
76059;SDS011;64759;52.220;5.170;2023-04-10T12:43:51;6.90;;;4.07;;
76059;SDS011;64759;52.220;5.170;2023-04-10T12:46:22;5.35;;;4.00;;
76059;SDS011;64759;52.220;5.170;2023-04-10T12:48:51;5.18;;;3.63;;
76059;SDS011;64759;52.220;5.170;2023-04-10T12:51:17;5.15;;;4.53;;
76059;SDS011;64759;52.220;5.170;2023-04-10T12:53:43;6.00;;;4.38;;
76059;SDS011;64759;52.220;5.170;2023-04-10T12:56:10;6.45;;;4.38;;
76059;SDS011;64759;52.220;5.170;2023-04-10T12:58:36;5.18;;;4.30;;
76059;SDS011;64759;52.220;5.170;2023-04-10T13:01:05;10.30;;;3.97;;
76059;SDS011;64759;52.220;5.170;2023-04-10T13:03:35;5.05;;;4.20;;
76059;SDS011;64759;52.220;5.170;2023-04-10T13:06:01;7.53;;;4.00;;
76059;SDS011;64759;52.220;5.170;2023-04-10T13:08:29;6.45;;;4.07;;
76059;SDS011;64759;52.220;5.170;2023-04-10T13:10:56;5.22;;;4.75;;
76059;SDS011;64759;52.220;5.170;2023-04-10T13:13:27;4.55;;;3.83;;
76059;SDS011;64759;52.220;5.170;2023-04-10T13:15:54;5.65;;;4.43;;
76059;SDS011;64759;52.220;5.170;2023-04-10T13:18:20;4.28;;;3.67;;
76059;SDS011;64759;52.220;5.170;2023-04-10T13:20:45;5.68;;;4.43;;
76059;SDS011;64759;52.220;5.170;2023-04-10T13:23:10;6.45;;;4.88;;
76059;SDS011;64759;52.220;5.170;2023-04-10T13:25:36;5.00;;;3.92;;
76059;SDS011;64759;52.220;5.170;2023-04-10T13:28:04;7.10;;;4.22;;
76059;SDS011;64759;52.220;5.170;2023-04-10T13:30:36;6.57;;;4.20;;
76059;SDS011;64759;52.220;5.170;2023-04-10T13:33:03;5.22;;;4.07;;
76059;SDS011;64759;52.220;5.170;2023-04-10T13:35:28;10.20;;;4.55;;
76059;SDS011;64759;52.220;5.170;2023-04-10T13:37:53;4.97;;;4.40;;
76059;SDS011;64759;52.220;5.170;2023-04-10T13:40:19;6.18;;;4.35;;
76059;SDS011;64759;52.220;5.170;2023-04-10T13:42:45;5.32;;;4.53;;
76059;SDS011;64759;52.220;5.170;2023-04-10T13:45:14;6.00;;;5.07;;
76059;SDS011;64759;52.220;5.170;2023-04-10T13:47:40;7.63;;;5.60;;
76059;SDS011;64759;52.220;5.170;2023-04-10T13:50:06;7.10;;;5.45;;
76059;SDS011;64759;52.220;5.170;2023-04-10T13:52:31;6.65;;;5.63;;
76059;SDS011;64759;52.220;5.170;2023-04-10T13:54:57;12.32;;;5.55;;
76059;SDS011;64759;52.220;5.170;2023-04-10T13:57:23;8.70;;;5.95;;
76059;SDS011;64759;52.220;5.170;2023-04-10T13:59:48;9.68;;;6.38;;
76059;SDS011;64759;52.220;5.170;2023-04-10T14:02:14;8.20;;;5.82;;
76059;SDS011;64759;52.220;5.170;2023-04-10T14:04:40;8.95;;;6.70;;
76059;SDS011;64759;52.220;5.170;2023-04-10T14:07:07;8.13;;;6.72;;
76059;SDS011;64759;52.220;5.170;2023-04-10T14:09:33;9.27;;;7.68;;
76059;SDS011;64759;52.220;5.170;2023-04-10T14:11:59;8.52;;;7.40;;
76059;SDS011;64759;52.220;5.170;2023-04-10T14:14:25;9.77;;;7.35;;
76059;SDS011;64759;52.220;5.170;2023-04-10T14:16:50;7.28;;;5.95;;
76059;SDS011;64759;52.220;5.170;2023-04-10T14:19:16;8.40;;;6.90;;
76059;SDS011;64759;52.220;5.170;2023-04-10T14:21:42;7.45;;;6.55;;
76059;SDS011;64759;52.220;5.170;2023-04-10T14:24:08;7.63;;;6.60;;
76059;SDS011;64759;52.220;5.170;2023-04-10T14:26:34;8.95;;;7.70;;
76059;SDS011;64759;52.220;5.170;2023-04-10T14:29:00;8.60;;;7.05;;
76059;SDS011;64759;52.220;5.170;2023-04-10T14:31:25;7.53;;;6.25;;
76059;SDS011;64759;52.220;5.170;2023-04-10T14:33:50;7.70;;;6.25;;
76059;SDS011;64759;52.220;5.170;2023-04-10T14:36:16;11.70;;;8.27;;
76059;SDS011;64759;52.220;5.170;2023-04-10T14:38:41;10.68;;;8.35;;
76059;SDS011;64759;52.220;5.170;2023-04-10T14:41:07;12.07;;;8.50;;
76059;SDS011;64759;52.220;5.170;2023-04-10T14:43:32;11.15;;;7.50;;
76059;SDS011;64759;52.220;5.170;2023-04-10T14:45:58;10.60;;;7.70;;
76059;SDS011;64759;52.220;5.170;2023-04-10T14:48:23;9.80;;;6.13;;
76059;SDS011;64759;52.220;5.170;2023-04-10T14:50:49;9.18;;;6.63;;
76059;SDS011;64759;52.220;5.170;2023-04-10T14:53:15;8.02;;;6.65;;
76059;SDS011;64759;52.220;5.170;2023-04-10T14:55:41;7.80;;;7.00;;
76059;SDS011;64759;52.220;5.170;2023-04-10T14:58:06;11.23;;;7.35;;
76059;SDS011;64759;52.220;5.170;2023-04-10T15:00:33;12.98;;;8.23;;
76059;SDS011;64759;52.220;5.170;2023-04-10T15:02:59;12.77;;;7.18;;
76059;SDS011;64759;52.220;5.170;2023-04-10T15:05:25;9.75;;;8.43;;
76059;SDS011;64759;52.220;5.170;2023-04-10T15:07:51;9.90;;;7.55;;
76059;SDS011;64759;52.220;5.170;2023-04-10T15:10:17;9.95;;;7.85;;
76059;SDS011;64759;52.220;5.170;2023-04-10T15:12:42;9.77;;;8.77;;
76059;SDS011;64759;52.220;5.170;2023-04-10T15:15:08;8.55;;;7.45;;
76059;SDS011;64759;52.220;5.170;2023-04-10T15:17:33;9.77;;;7.22;;
76059;SDS011;64759;52.220;5.170;2023-04-10T15:19:59;9.15;;;7.68;;
76059;SDS011;64759;52.220;5.170;2023-04-10T15:22:25;10.73;;;8.20;;
76059;SDS011;64759;52.220;5.170;2023-04-10T15:24:50;11.00;;;8.35;;
76059;SDS011;64759;52.220;5.170;2023-04-10T15:27:17;9.15;;;8.25;;
76059;SDS011;64759;52.220;5.170;2023-04-10T15:29:44;9.05;;;7.45;;
76059;SDS011;64759;52.220;5.170;2023-04-10T15:32:09;8.25;;;7.45;;
76059;SDS011;64759;52.220;5.170;2023-04-10T15:34:35;9.30;;;7.57;;
76059;SDS011;64759;52.220;5.170;2023-04-10T15:37:00;9.98;;;8.13;;